createdAt,value
2018-06-23T00:01:42.862Z,15.99
2018-06-23T00:03:48.146Z,15.98
2018-06-23T00:05:53.503Z,15.96
2018-06-23T00:07:58.943Z,15.95
2018-06-23T00:10:04.500Z,15.90
2018-06-23T00:12:09.933Z,15.85
2018-06-23T00:14:17.240Z,15.81
2018-06-23T00:16:22.845Z,15.77
2018-06-23T00:18:28.152Z,15.75
2018-06-23T00:20:33.546Z,15.74
2018-06-23T00:22:39.007Z,15.74
2018-06-23T00:24:44.571Z,15.75
2018-06-23T00:26:49.925Z,15.77
2018-06-23T00:28:55.276Z,15.77
2018-06-23T00:31:00.560Z,15.75
2018-06-23T00:33:05.944Z,15.75
2018-06-23T00:35:11.025Z,15.75
2018-06-23T00:37:16.375Z,15.75
2018-06-23T00:39:21.727Z,15.77
2018-06-23T00:41:27.178Z,15.78
2018-06-23T00:43:32.559Z,15.76
2018-06-23T00:45:37.868Z,15.74
2018-06-23T00:47:43.305Z,15.67
2018-06-23T00:49:48.310Z,15.62
2018-06-23T00:51:53.675Z,15.59
2018-06-23T00:53:59.144Z,15.62
2018-06-23T00:56:04.523Z,15.68
2018-06-23T00:58:09.881Z,15.74
2018-06-23T01:00:15.380Z,15.80
2018-06-23T01:02:20.700Z,15.85
2018-06-23T01:04:26.035Z,15.85
2018-06-23T01:06:31.352Z,15.80
2018-06-23T01:08:36.664Z,15.72
2018-06-23T01:10:41.658Z,15.61
2018-06-23T01:12:46.927Z,15.50
2018-06-23T01:14:52.264Z,15.40
2018-06-23T01:16:57.907Z,15.31
2018-06-23T01:19:03.244Z,15.18
2018-06-23T01:21:08.724Z,15.15
2018-06-23T01:23:14.144Z,15.10
2018-06-23T01:25:19.913Z,15.01
2018-06-23T01:27:25.081Z,15.12
2018-06-23T01:29:30.889Z,15.15
2018-06-23T01:31:36.325Z,15.16
2018-06-23T01:33:41.646Z,15.15
2018-06-23T01:35:47.015Z,15.10
2018-06-23T01:37:52.414Z,15.07
2018-06-23T01:39:57.403Z,15.06
2018-06-23T01:42:02.672Z,15.05
2018-06-23T01:44:08.151Z,15.02
2018-06-23T01:46:13.419Z,14.98
2018-06-23T01:48:20.030Z,14.96
2018-06-23T01:50:25.384Z,14.95
2018-06-23T01:52:30.656Z,14.94
2018-06-23T01:54:36.447Z,14.93
2018-06-23T01:56:42.004Z,14.93
2018-06-23T01:58:47.299Z,14.91
2018-06-23T02:00:52.624Z,14.92
2018-06-23T02:02:57.967Z,14.89
2018-06-23T02:05:03.357Z,14.88
2018-06-23T02:07:08.672Z,14.83
2018-06-23T02:09:14.104Z,14.80
2018-06-23T02:11:20.228Z,14.79
2018-06-23T02:13:25.629Z,14.78
2018-06-23T02:15:36.720Z,14.76
2018-06-23T02:17:47.317Z,14.75
2018-06-23T02:19:57.831Z,14.75
2018-06-23T02:22:08.287Z,14.78
2018-06-23T02:24:18.592Z,14.86
2018-06-23T02:26:29.168Z,14.90
2018-06-23T02:28:39.659Z,14.87
2018-06-23T02:30:50.017Z,14.86
2018-06-23T02:32:55.383Z,14.87
2018-06-23T02:35:07.339Z,14.89
2018-06-23T02:37:12.703Z,14.86
2018-06-23T02:39:18.209Z,14.80
2018-06-23T02:41:27.608Z,14.77
2018-06-23T02:43:33.091Z,14.73
2018-06-23T02:45:38.534Z,14.70
2018-06-23T02:47:44.022Z,14.68
2018-06-23T02:49:49.419Z,14.62
2018-06-23T02:51:54.894Z,14.56
2018-06-23T02:54:00.259Z,14.53
2018-06-23T02:56:05.551Z,14.58
2018-06-23T02:58:10.844Z,14.64
2018-06-23T03:00:15.970Z,14.60
2018-06-23T03:02:21.229Z,14.58
2018-06-23T03:04:26.581Z,14.56
2018-06-23T03:06:32.048Z,14.55
2018-06-23T03:08:37.629Z,14.52
2018-06-23T03:10:42.939Z,14.49
2018-06-23T03:12:48.389Z,14.45
2018-06-23T03:14:53.781Z,14.45
2018-06-23T03:16:59.113Z,14.45
2018-06-23T03:19:04.467Z,14.48
2018-06-23T03:21:09.952Z,14.57
2018-06-23T03:23:15.194Z,14.66
2018-06-23T03:25:20.488Z,14.72
2018-06-23T03:27:25.802Z,14.80
2018-06-23T03:29:31.156Z,14.82
2018-06-23T03:31:36.640Z,14.83
2018-06-23T03:33:42.784Z,14.83
2018-06-23T03:35:48.240Z,14.83
2018-06-23T03:37:53.748Z,14.77
2018-06-23T03:39:59.222Z,14.70
2018-06-23T03:42:04.593Z,14.61
2018-06-23T03:44:10.034Z,14.54
2018-06-23T03:46:15.499Z,14.51
2018-06-23T03:48:20.787Z,14.52
2018-06-23T03:50:26.192Z,14.47
2018-06-23T03:52:31.477Z,14.45
2018-06-23T03:54:39.890Z,14.39
2018-06-23T03:56:45.198Z,14.35
2018-06-23T03:58:50.544Z,14.33
2018-06-23T04:00:55.963Z,14.30
2018-06-23T04:03:01.403Z,14.27
2018-06-23T04:05:06.519Z,14.23
2018-06-23T04:07:11.860Z,14.20
2018-06-23T04:09:17.219Z,14.20
2018-06-23T04:11:22.541Z,14.22
2018-06-23T04:13:27.851Z,14.24
2018-06-23T04:15:33.227Z,14.29
2018-06-23T04:17:38.553Z,14.29
2018-06-23T04:19:43.647Z,14.33
2018-06-23T04:21:48.937Z,14.40
2018-06-23T04:23:54.272Z,14.51
2018-06-23T04:25:59.576Z,14.59
2018-06-23T04:28:04.980Z,14.68
2018-06-23T04:30:10.296Z,14.75
2018-06-23T04:32:15.995Z,14.83
2018-06-23T04:34:21.403Z,14.92
2018-06-23T04:36:26.856Z,14.97
2018-06-23T04:38:32.159Z,15.04
2018-06-23T04:40:37.580Z,15.08
2018-06-23T04:42:42.788Z,15.12
2018-06-23T04:44:48.068Z,15.09
2018-06-23T04:46:53.416Z,15.06
2018-06-23T04:48:58.828Z,15.00
2018-06-23T04:51:04.197Z,14.97
2018-06-23T04:53:09.600Z,14.95
2018-06-23T04:55:14.966Z,14.94
2018-06-23T04:57:20.691Z,14.98
2018-06-23T04:59:25.985Z,15.02
2018-06-23T05:01:31.329Z,15.06
2018-06-23T05:03:36.732Z,15.13
2018-06-23T05:05:42.169Z,15.22
2018-06-23T05:07:47.682Z,15.31
2018-06-23T05:09:53.590Z,15.40
2018-06-23T05:11:58.968Z,15.48
2018-06-23T05:14:04.459Z,15.52
2018-06-23T05:16:09.697Z,15.61
2018-06-23T05:18:15.059Z,15.68
2018-06-23T05:20:20.684Z,15.73
2018-06-23T05:22:26.001Z,15.82
2018-06-23T05:24:31.409Z,15.90
2018-06-23T05:26:36.863Z,15.99
2018-06-23T05:28:42.404Z,16.05
2018-06-23T05:30:47.849Z,16.09
2018-06-23T05:32:53.369Z,16.14
2018-06-23T05:34:58.650Z,16.20
2018-06-23T05:37:03.989Z,16.25
2018-06-23T05:39:10.330Z,16.33
2018-06-23T05:41:15.727Z,16.42
2018-06-23T05:43:21.330Z,16.50
2018-06-23T05:45:26.726Z,16.58
2018-06-23T05:47:32.240Z,16.67
2018-06-23T05:49:37.547Z,16.77
2018-06-23T05:51:43.028Z,16.84
2018-06-23T05:53:48.352Z,16.93
2018-06-23T05:55:53.626Z,17.02
2018-06-23T05:57:58.868Z,17.09
2018-06-23T06:00:04.435Z,17.17
2018-06-23T06:02:10.192Z,17.21
2018-06-23T06:04:15.553Z,17.23
2018-06-23T06:06:21.034Z,17.25
2018-06-23T06:08:26.465Z,17.27
2018-06-23T06:10:31.882Z,17.43
2018-06-23T06:12:42.916Z,17.84
2018-06-23T06:14:53.959Z,18.45
2018-06-23T06:17:23.640Z,19.17
2018-06-23T06:19:34.995Z,19.95
2018-06-23T06:21:45.955Z,20.60
2018-06-23T06:23:51.602Z,21.30
2018-06-23T06:25:57.109Z,22.02
2018-06-23T06:28:02.484Z,22.73
2018-06-23T06:30:09.695Z,23.40
2018-06-23T06:32:15.063Z,23.95
2018-06-23T06:34:20.670Z,24.46
2018-06-23T06:36:26.303Z,24.61
2018-06-23T06:38:31.624Z,24.56
2018-06-23T06:40:37.030Z,24.62
2018-06-23T06:42:42.421Z,24.75
2018-06-23T06:44:48.031Z,24.84
2018-06-23T06:46:54.388Z,24.73
2018-06-23T06:48:59.777Z,24.50
2018-06-23T06:51:05.259Z,24.35
2018-06-23T06:53:10.594Z,24.18
2018-06-23T06:55:16.007Z,24.22
2018-06-23T06:57:21.516Z,24.27
2018-06-23T06:59:26.850Z,24.23
2018-06-23T07:01:32.195Z,24.07
2018-06-23T07:03:37.639Z,23.80
2018-06-23T07:05:42.835Z,23.78
2018-06-23T07:07:48.224Z,23.79
2018-06-23T07:09:53.736Z,23.73
2018-06-23T07:11:58.783Z,23.67
2018-06-23T07:14:05.212Z,23.63
2018-06-23T07:16:10.676Z,23.52
2018-06-23T07:18:16.057Z,23.40
2018-06-23T07:20:21.521Z,23.21
2018-06-23T07:22:27.044Z,22.94
2018-06-23T07:24:32.744Z,22.72
2018-06-23T07:26:37.756Z,22.50
2018-06-23T07:28:43.189Z,22.21
2018-06-23T07:30:48.634Z,22.01
2018-06-23T07:32:54.018Z,21.94
2018-06-23T07:34:59.460Z,21.88
2018-06-23T07:37:13.764Z,21.85
2018-06-23T07:39:33.585Z,21.82
2018-06-23T07:41:47.327Z,21.75
2018-06-23T07:43:52.925Z,21.60
2018-06-23T07:45:58.341Z,21.40
2018-06-23T07:48:03.824Z,21.17
2018-06-23T07:50:09.367Z,20.90
2018-06-23T07:52:14.708Z,20.67
2018-06-23T07:54:21.050Z,20.51
2018-06-23T07:56:26.480Z,20.33
2018-06-23T07:58:31.830Z,20.22
2018-06-23T08:00:36.886Z,20.19
2018-06-23T08:02:42.176Z,20.16
2018-06-23T08:04:47.824Z,20.16
2018-06-23T08:06:53.304Z,20.26
2018-06-23T08:08:58.864Z,20.38
2018-06-23T08:11:04.283Z,20.48
2018-06-23T08:13:09.815Z,20.61
2018-06-23T08:15:15.241Z,20.71
2018-06-23T08:17:21.101Z,20.79
2018-06-23T08:19:26.445Z,20.80
2018-06-23T08:21:31.834Z,20.77
2018-06-23T08:23:37.439Z,20.75
2018-06-23T08:25:42.872Z,20.75
2018-06-23T08:27:48.256Z,20.76
2018-06-23T08:29:53.745Z,20.73
2018-06-23T08:31:59.236Z,20.73
2018-06-23T08:34:04.954Z,20.65
2018-06-23T08:36:10.576Z,20.58
2018-06-23T08:38:15.672Z,20.62
2018-06-23T08:40:21.240Z,20.67
2018-06-23T08:42:26.730Z,20.72
2018-06-23T08:44:32.223Z,20.80
2018-06-23T08:46:37.644Z,20.88
2018-06-23T08:48:43.009Z,20.94
2018-06-23T08:50:48.376Z,20.96
2018-06-23T08:52:53.790Z,21.00
2018-06-23T08:54:59.217Z,21.05
2018-06-23T08:57:04.790Z,21.11
2018-06-23T08:59:10.225Z,21.16
2018-06-23T09:01:15.628Z,21.14
2018-06-23T09:03:21.164Z,21.14
2018-06-23T09:05:26.504Z,21.21
2018-06-23T09:07:31.857Z,21.28
2018-06-23T09:09:37.255Z,21.34
2018-06-23T09:11:42.875Z,21.34
2018-06-23T09:13:48.380Z,21.29
2018-06-23T09:15:53.862Z,21.26
2018-06-23T09:17:59.331Z,21.24
2018-06-23T09:20:04.871Z,21.18
2018-06-23T09:22:10.112Z,21.14
2018-06-23T09:24:15.383Z,21.09
2018-06-23T09:26:21.276Z,21.07
2018-06-23T09:28:26.711Z,21.11
2018-06-23T09:30:32.332Z,21.22
2018-06-23T09:32:37.807Z,21.34
2018-06-23T09:34:43.008Z,21.39
2018-06-23T09:36:48.394Z,21.43
2018-06-23T09:38:53.475Z,21.45
2018-06-23T09:40:58.970Z,21.49
2018-06-23T09:43:04.384Z,21.54
2018-06-23T09:45:09.779Z,21.56
2018-06-23T09:47:15.260Z,21.62
2018-06-23T09:49:21.308Z,21.68
2018-06-23T09:51:27.328Z,21.72
2018-06-23T09:53:33.219Z,21.76
2018-06-23T09:55:38.660Z,21.75
2018-06-23T09:57:44.101Z,21.73
2018-06-23T09:59:49.732Z,21.70
2018-06-23T10:02:01.669Z,21.69
2018-06-23T10:04:07.135Z,21.69
2018-06-23T10:06:12.488Z,21.74
2018-06-23T10:08:17.869Z,21.80
2018-06-23T10:10:23.459Z,21.84
2018-06-23T10:12:28.799Z,21.85
2018-06-23T10:14:34.248Z,21.84
2018-06-23T10:16:39.670Z,21.78
2018-06-23T10:18:45.060Z,21.75
2018-06-23T10:20:50.573Z,21.73
2018-06-23T10:22:56.096Z,21.74
2018-06-23T10:25:01.568Z,21.73
2018-06-23T10:27:06.980Z,21.70
2018-06-23T10:29:12.468Z,21.71
2018-06-23T10:31:17.878Z,21.74
2018-06-23T10:33:23.251Z,21.77
2018-06-23T10:35:28.664Z,21.79
2018-06-23T10:37:34.867Z,21.78
2018-06-23T10:39:40.429Z,21.81
2018-06-23T10:41:45.833Z,21.85
2018-06-23T10:43:51.254Z,21.91
2018-06-23T10:45:56.357Z,21.94
2018-06-23T10:48:01.756Z,21.96
2018-06-23T10:50:07.378Z,22.00
2018-06-23T10:52:13.113Z,22.02
2018-06-23T10:54:18.524Z,22.03
2018-06-23T10:56:24.392Z,22.05
2018-06-23T10:58:29.865Z,22.04
2018-06-23T11:00:35.353Z,22.01
2018-06-23T11:02:40.774Z,22.02
2018-06-23T11:04:46.394Z,22.06
2018-06-23T11:06:51.832Z,22.07
2018-06-23T11:08:57.262Z,22.10
2018-06-23T11:11:02.320Z,22.15
2018-06-23T11:13:07.718Z,22.22
2018-06-23T11:15:13.186Z,22.27
2018-06-23T11:17:18.535Z,22.33
2018-06-23T11:19:23.982Z,22.38
2018-06-23T11:21:29.456Z,22.38
2018-06-23T11:23:34.864Z,22.40
2018-06-23T11:25:40.378Z,22.41
2018-06-23T11:27:45.725Z,22.42
2018-06-23T11:29:51.588Z,22.43
2018-06-23T11:31:57.008Z,22.47
2018-06-23T11:34:02.550Z,22.48
2018-06-23T11:36:08.079Z,22.50
2018-06-23T11:38:13.263Z,22.56
2018-06-23T11:40:18.664Z,22.64
2018-06-23T11:42:24.028Z,22.67
2018-06-23T11:44:29.525Z,22.68
2018-06-23T11:46:34.959Z,22.71
2018-06-23T11:48:40.495Z,22.72
2018-06-23T11:50:46.053Z,22.75
2018-06-23T11:52:51.535Z,22.80
2018-06-23T11:54:57.145Z,22.83
2018-06-23T11:57:02.540Z,22.87
2018-06-23T11:59:07.982Z,22.89
2018-06-23T12:01:13.490Z,22.92
2018-06-23T12:03:19.061Z,22.96
2018-06-23T12:05:24.438Z,23.04
2018-06-23T12:07:30.247Z,23.07
2018-06-23T12:09:35.641Z,23.07
2018-06-23T12:11:41.167Z,23.05
2018-06-23T12:13:46.685Z,23.08
2018-06-23T12:15:52.125Z,23.09
2018-06-23T12:17:57.489Z,23.11
2018-06-23T12:20:03.257Z,23.16
2018-06-23T12:22:08.674Z,23.21
2018-06-23T12:24:14.178Z,23.26
2018-06-23T12:26:19.611Z,23.26
2018-06-23T12:28:24.995Z,23.29
2018-06-23T12:30:30.406Z,23.32
2018-06-23T12:32:35.955Z,23.37
2018-06-23T12:34:41.328Z,23.43
2018-06-23T12:36:46.717Z,23.50
2018-06-23T12:38:51.923Z,23.54
2018-06-23T12:40:57.345Z,23.56
2018-06-23T12:43:02.720Z,23.56
2018-06-23T12:45:08.206Z,23.56
2018-06-23T12:47:13.605Z,23.56
2018-06-23T12:49:19.068Z,23.60
2018-06-23T12:51:24.259Z,23.67
2018-06-23T12:53:29.568Z,23.74
2018-06-23T12:55:35.261Z,23.77
2018-06-23T12:57:41.360Z,23.82
2018-06-23T12:59:46.647Z,23.89
2018-06-23T13:01:51.749Z,23.96
2018-06-23T13:03:57.107Z,24.05
2018-06-23T13:06:02.569Z,24.08
2018-06-23T13:08:08.202Z,24.12
2018-06-23T13:10:13.689Z,24.13
2018-06-23T13:12:19.078Z,24.12
2018-06-23T13:14:24.469Z,24.07
2018-06-23T13:16:29.866Z,24.06
2018-06-23T13:18:35.220Z,24.08
2018-06-23T13:20:41.285Z,24.12
2018-06-23T13:22:46.759Z,24.16
2018-06-23T13:24:53.193Z,24.22
2018-06-23T13:26:58.625Z,24.27
2018-06-23T13:29:04.186Z,24.27
2018-06-23T13:31:09.706Z,24.32
2018-06-23T13:33:15.405Z,24.34
2018-06-23T13:35:21.948Z,24.36
2018-06-23T13:37:27.473Z,24.37
2018-06-23T13:39:32.889Z,24.37
2018-06-23T13:41:44.810Z,24.36
2018-06-23T13:43:50.234Z,24.37
2018-06-23T13:45:55.790Z,24.39
2018-06-23T13:48:01.315Z,24.43
2018-06-23T13:50:06.881Z,24.51
2018-06-23T13:52:12.359Z,24.55
2018-06-23T13:54:17.890Z,24.62
2018-06-23T13:56:23.346Z,24.67
2018-06-23T13:58:28.884Z,24.75
2018-06-23T14:00:34.329Z,24.84
2018-06-23T14:02:39.905Z,24.91
2018-06-23T14:04:45.295Z,24.95
2018-06-23T14:06:50.755Z,24.98
2018-06-23T14:08:56.316Z,25.00
2018-06-23T14:11:01.767Z,25.01
2018-06-23T14:13:07.345Z,25.05
2018-06-23T14:15:12.751Z,25.11
2018-06-23T14:17:18.404Z,25.18
2018-06-23T14:19:23.783Z,25.28
2018-06-23T14:21:29.206Z,25.36
2018-06-23T14:23:34.690Z,25.42
2018-06-23T14:25:40.460Z,25.42
2018-06-23T14:27:45.922Z,25.43
2018-06-23T14:29:51.356Z,25.42
2018-06-23T14:31:57.069Z,25.46
2018-06-23T14:34:02.343Z,25.51
2018-06-23T14:36:07.813Z,25.53
2018-06-23T14:38:13.302Z,25.55
2018-06-23T14:40:18.947Z,25.57
2018-06-23T14:42:26.897Z,25.63
2018-06-23T14:44:32.265Z,25.70
2018-06-23T14:46:37.684Z,25.75
2018-06-23T14:48:43.097Z,25.70
2018-06-23T14:50:48.521Z,25.72
2018-06-23T14:52:53.916Z,25.77
2018-06-23T14:54:59.323Z,25.78
2018-06-23T14:57:04.789Z,25.79
2018-06-23T14:59:10.243Z,25.82
2018-06-23T15:01:15.676Z,25.86
2018-06-23T15:03:22.001Z,25.89
2018-06-23T15:05:27.441Z,25.92
2018-06-23T15:07:32.820Z,25.95
2018-06-23T15:11:57.247Z,25.97
2018-06-23T15:14:02.975Z,26.00
2018-06-23T15:16:08.349Z,26.02
2018-06-23T15:18:13.813Z,26.07
2018-06-23T15:20:19.203Z,26.05
2018-06-23T15:22:24.689Z,26.02
2018-06-23T15:24:30.031Z,26.01
2018-06-23T15:26:35.516Z,26.03
2018-06-23T15:28:40.956Z,26.04
2018-06-23T15:30:46.339Z,26.03
2018-06-23T15:32:51.718Z,26.03
2018-06-23T15:34:57.064Z,26.01
2018-06-23T15:37:02.444Z,26.02
2018-06-23T15:39:09.616Z,26.01
2018-06-23T15:41:14.987Z,25.96
2018-06-23T15:43:20.429Z,25.88
2018-06-23T15:45:25.783Z,25.84
2018-06-23T15:47:31.235Z,25.84
2018-06-23T15:49:36.700Z,25.84
2018-06-23T15:51:42.095Z,25.85
2018-06-23T15:53:47.513Z,25.84
2018-06-23T15:55:53.014Z,25.81
2018-06-23T15:57:58.475Z,25.75
2018-06-23T16:00:03.869Z,25.70
2018-06-23T16:02:09.196Z,25.65
2018-06-23T16:04:14.618Z,25.64
2018-06-23T16:06:20.248Z,25.59
2018-06-23T16:08:25.573Z,25.51
2018-06-23T16:10:30.944Z,25.43
2018-06-23T16:12:36.393Z,25.31
2018-06-23T16:14:41.557Z,25.18
2018-06-23T16:16:46.916Z,25.09
2018-06-23T16:18:52.416Z,25.07
2018-06-23T16:20:57.872Z,25.01
2018-06-23T16:23:03.329Z,24.94
2018-06-23T16:25:08.956Z,24.84
2018-06-23T16:27:14.372Z,24.77
2018-06-23T16:29:19.735Z,24.69
2018-06-23T16:31:25.869Z,24.65
2018-06-23T16:33:31.244Z,24.56
2018-06-23T16:35:36.566Z,24.48
2018-06-23T16:37:41.948Z,24.40
2018-06-23T16:39:47.260Z,24.36
2018-06-23T16:41:52.679Z,24.35
2018-06-23T16:43:58.262Z,24.39
2018-06-23T16:46:03.759Z,24.40
2018-06-23T16:48:09.194Z,24.36
2018-06-23T16:50:14.551Z,24.42
2018-06-23T16:52:20.019Z,24.37
2018-06-23T16:54:25.452Z,24.33
2018-06-23T16:56:30.880Z,24.30
2018-06-23T16:58:36.291Z,24.28
2018-06-23T17:00:41.663Z,24.27
2018-06-23T17:02:47.076Z,24.26
2018-06-23T17:04:52.414Z,24.23
2018-06-23T17:06:57.895Z,24.21
2018-06-23T17:09:03.894Z,24.19
2018-06-23T17:11:09.279Z,24.17
2018-06-23T17:13:14.654Z,24.14
2018-06-23T17:15:20.012Z,24.08
2018-06-23T17:17:25.270Z,24.03
2018-06-23T17:19:30.726Z,23.96
2018-06-23T17:21:36.074Z,23.86
2018-06-23T17:23:41.656Z,23.78
2018-06-23T17:25:47.056Z,23.74
2018-06-23T17:27:52.420Z,23.73
2018-06-23T17:29:57.866Z,23.69
2018-06-23T17:32:03.380Z,23.60
2018-06-23T17:34:08.759Z,23.51
2018-06-23T17:36:14.093Z,23.47
2018-06-23T17:38:19.512Z,23.43
2018-06-23T17:40:24.874Z,23.44
2018-06-23T17:42:30.264Z,23.44
2018-06-23T17:44:35.631Z,23.44
2018-06-23T17:46:41.082Z,23.48
2018-06-23T17:48:46.603Z,23.49
2018-06-23T17:50:51.946Z,23.49
2018-06-23T17:52:57.305Z,23.51
2018-06-23T17:55:02.682Z,23.51
2018-06-23T17:57:08.075Z,23.49
2018-06-23T17:59:13.508Z,23.47
2018-06-23T18:01:19.094Z,23.45
2018-06-23T18:03:24.436Z,23.44
2018-06-23T18:05:29.809Z,23.41
2018-06-23T18:07:35.724Z,23.39
2018-06-23T18:09:41.106Z,23.35
2018-06-23T18:11:46.510Z,23.33
2018-06-23T18:13:51.872Z,23.30
2018-06-23T18:15:57.184Z,23.27
2018-06-23T18:18:02.603Z,23.23
2018-06-23T18:20:08.182Z,23.19
2018-06-23T18:22:13.574Z,23.12
2018-06-23T18:24:18.948Z,23.09
2018-06-23T18:26:24.299Z,23.07
2018-06-23T18:28:36.194Z,23.05
2018-06-23T18:30:41.575Z,22.99
2018-06-23T18:32:47.015Z,22.96
2018-06-23T18:34:52.326Z,22.93
2018-06-23T18:36:57.653Z,22.87
2018-06-23T18:39:03.842Z,22.80
2018-06-23T18:41:09.187Z,22.78
2018-06-23T18:43:14.720Z,22.78
2018-06-23T18:45:20.193Z,22.77
2018-06-23T18:47:25.642Z,22.77
2018-06-23T18:49:31.827Z,22.74
2018-06-23T18:51:37.296Z,22.74
2018-06-23T18:53:42.716Z,22.71
2018-06-23T18:55:48.172Z,22.68
2018-06-23T18:57:53.532Z,22.62
2018-06-23T18:59:58.849Z,22.54
2018-06-23T19:02:04.457Z,22.50
2018-06-23T19:04:09.779Z,22.49
2018-06-23T19:06:18.637Z,22.48
2018-06-23T19:08:23.995Z,22.47
2018-06-23T19:10:29.371Z,22.45
2018-06-23T19:12:35.404Z,22.44
2018-06-23T19:14:40.788Z,22.43
2018-06-23T19:16:46.320Z,22.42
2018-06-23T19:18:51.672Z,22.39
2018-06-23T19:20:57.075Z,22.37
2018-06-23T19:23:02.553Z,22.36
2018-06-23T19:25:08.035Z,22.33
2018-06-23T19:27:13.457Z,22.34
2018-06-23T19:29:18.913Z,22.33
2018-06-23T19:31:24.252Z,22.30
2018-06-23T19:33:30.173Z,22.28
2018-06-23T19:35:35.532Z,22.27
2018-06-23T19:37:40.871Z,22.26
2018-06-23T19:39:46.524Z,22.25
2018-06-23T19:41:51.994Z,22.25
2018-06-23T19:43:57.294Z,22.22
2018-06-23T19:46:02.608Z,22.16
2018-06-23T19:48:08.005Z,22.13
2018-06-23T19:50:13.396Z,22.10
2018-06-23T19:52:18.896Z,22.07
2018-06-23T19:54:24.448Z,22.06
2018-06-23T19:56:29.801Z,22.04
2018-06-23T19:58:35.269Z,22.02
2018-06-23T20:00:40.632Z,22.03
2018-06-23T20:02:45.962Z,21.96
2018-06-23T20:04:51.293Z,22.01
2018-06-23T20:06:56.670Z,22.01
2018-06-23T20:09:02.094Z,22.00
2018-06-23T20:11:07.601Z,21.98
2018-06-23T20:13:13.021Z,21.92
2018-06-23T20:15:18.505Z,21.90
2018-06-23T20:17:23.899Z,21.89
2018-06-23T20:19:29.263Z,21.88
2018-06-23T20:21:34.595Z,21.88
2018-06-23T20:23:40.028Z,21.87
2018-06-23T20:25:45.831Z,21.87
2018-06-23T20:27:51.216Z,21.87
2018-06-23T20:29:56.815Z,21.86
2018-06-23T20:32:03.055Z,21.85
2018-06-23T20:34:08.459Z,21.86
2018-06-23T20:36:13.804Z,21.86
2018-06-23T20:38:19.152Z,21.84
2018-06-23T20:40:24.535Z,21.79
2018-06-23T20:42:29.947Z,21.75
2018-06-23T20:44:35.344Z,21.72
2018-06-23T20:46:40.792Z,21.71
2018-06-23T20:48:46.216Z,21.68
2018-06-23T20:50:51.587Z,21.64
2018-06-23T20:52:56.988Z,21.60
2018-06-23T20:55:02.372Z,21.52
2018-06-23T20:57:07.749Z,21.48
2018-06-23T20:59:13.181Z,21.44
2018-06-23T21:01:18.698Z,21.41
2018-06-23T21:03:24.103Z,21.38
2018-06-23T21:05:29.497Z,21.33
2018-06-23T21:07:34.859Z,21.30
2018-06-23T21:09:40.248Z,21.25
2018-06-23T21:11:45.696Z,21.20
2018-06-23T21:13:51.155Z,21.17
2018-06-23T21:15:56.510Z,21.16
2018-06-23T21:18:02.025Z,21.14
2018-06-23T21:20:07.557Z,21.12
2018-06-23T21:22:12.928Z,21.09
2018-06-23T21:24:18.260Z,21.09
2018-06-23T21:26:23.663Z,21.07
2018-06-23T21:28:29.017Z,21.06
2018-06-23T21:30:34.556Z,21.03
2018-06-23T21:32:39.749Z,21.03
2018-06-23T21:34:45.055Z,21.03
2018-06-23T21:36:50.438Z,21.02
2018-06-23T21:38:55.807Z,20.98
2018-06-23T21:41:01.224Z,20.94
2018-06-23T21:43:06.639Z,20.90
2018-06-23T21:45:11.997Z,20.89
2018-06-23T21:47:17.382Z,20.87
2018-06-23T21:49:22.920Z,20.83
2018-06-23T21:51:28.376Z,20.80
2018-06-23T21:53:33.708Z,20.77
2018-06-23T21:55:39.190Z,20.75
2018-06-23T21:57:44.535Z,20.76
2018-06-23T21:59:49.907Z,20.76
2018-06-23T22:01:55.318Z,20.73
2018-06-23T22:04:00.709Z,20.69
2018-06-23T22:06:06.074Z,20.66
2018-06-23T22:08:11.517Z,20.58
2018-06-23T22:10:16.911Z,20.59
2018-06-23T22:12:22.931Z,20.56
2018-06-23T22:14:28.290Z,20.48
2018-06-23T22:16:33.682Z,20.42
2018-06-23T22:18:39.233Z,20.35
2018-06-23T22:20:44.591Z,20.31
2018-06-23T22:22:50.855Z,20.28
2018-06-23T22:24:56.269Z,20.20
2018-06-23T22:27:01.737Z,20.24
2018-06-23T22:29:07.209Z,20.25
2018-06-23T22:31:12.576Z,20.28
2018-06-23T22:33:17.931Z,20.28
2018-06-23T22:35:23.258Z,20.26
2018-06-23T22:37:28.708Z,20.27
2018-06-23T22:39:34.045Z,20.28
2018-06-23T22:41:39.783Z,20.29
2018-06-23T22:43:45.210Z,20.30
2018-06-23T22:45:50.572Z,20.27
2018-06-23T22:47:56.072Z,20.22
2018-06-23T22:50:01.452Z,20.15
2018-06-23T22:52:06.773Z,20.09
2018-06-23T22:54:12.154Z,20.07
2018-06-23T22:56:17.592Z,20.01
2018-06-23T22:58:23.279Z,19.95
2018-06-23T23:00:29.449Z,19.89
2018-06-23T23:02:34.792Z,19.84
2018-06-23T23:04:40.289Z,19.78
2018-06-23T23:06:45.644Z,19.73
2018-06-23T23:08:50.991Z,19.72
2018-06-23T23:10:56.519Z,19.67
2018-06-23T23:13:01.797Z,19.62
2018-06-23T23:15:07.314Z,19.54
2018-06-23T23:17:12.959Z,19.47
2018-06-23T23:19:18.997Z,19.43
2018-06-23T23:21:24.473Z,19.40
2018-06-23T23:23:30.432Z,19.32
2018-06-23T23:25:35.835Z,19.29
2018-06-23T23:27:41.395Z,19.25
2018-06-23T23:29:47.370Z,19.19
2018-06-23T23:31:52.896Z,19.14
2018-06-23T23:33:59.245Z,19.08
2018-06-23T23:36:04.644Z,19.00
2018-06-23T23:38:10.015Z,18.94
2018-06-23T23:40:15.356Z,18.87
2018-06-23T23:42:20.749Z,18.80
2018-06-23T23:44:26.137Z,18.75
2018-06-23T23:46:32.360Z,18.72
2018-06-23T23:48:37.769Z,18.69
2018-06-23T23:50:43.388Z,18.66
2018-06-23T23:52:48.943Z,18.65
2018-06-23T23:54:54.315Z,18.66
2018-06-23T23:56:59.690Z,18.66
2018-06-23T23:59:05.136Z,18.61
